sensor_id;sensor_type;location;lat;lon;timestamp;P1;durP1;ratioP1;P2;durP2;ratioP2
71771;SDS011;59606;52.138;5.424;2023-05-27T00:01:01;7.00;;;2.17;;
71771;SDS011;59606;52.138;5.424;2023-05-27T00:03:27;12.68;;;2.70;;
71771;SDS011;59606;52.138;5.424;2023-05-27T00:05:54;10.75;;;2.47;;
71771;SDS011;59606;52.138;5.424;2023-05-27T00:08:21;8.68;;;2.65;;
71771;SDS011;59606;52.138;5.424;2023-05-27T00:10:47;10.35;;;2.55;;
71771;SDS011;59606;52.138;5.424;2023-05-27T00:13:14;11.40;;;2.43;;
71771;SDS011;59606;52.138;5.424;2023-05-27T00:15:41;12.95;;;2.60;;
71771;SDS011;59606;52.138;5.424;2023-05-27T00:18:07;10.25;;;2.50;;
71771;SDS011;59606;52.138;5.424;2023-05-27T00:20:34;11.20;;;2.70;;
71771;SDS011;59606;52.138;5.424;2023-05-27T00:23:01;10.15;;;2.60;;
71771;SDS011;59606;52.138;5.424;2023-05-27T00:25:28;7.30;;;2.10;;
71771;SDS011;59606;52.138;5.424;2023-05-27T00:27:55;8.73;;;2.95;;
71771;SDS011;59606;52.138;5.424;2023-05-27T00:30:22;13.38;;;2.83;;
71771;SDS011;59606;52.138;5.424;2023-05-27T00:32:48;7.65;;;2.10;;
71771;SDS011;59606;52.138;5.424;2023-05-27T00:35:15;13.32;;;2.95;;
71771;SDS011;59606;52.138;5.424;2023-05-27T00:37:42;15.73;;;2.27;;
71771;SDS011;59606;52.138;5.424;2023-05-27T00:40:09;12.43;;;2.17;;
71771;SDS011;59606;52.138;5.424;2023-05-27T00:42:37;9.15;;;2.58;;
71771;SDS011;59606;52.138;5.424;2023-05-27T00:45:04;8.95;;;2.42;;
71771;SDS011;59606;52.138;5.424;2023-05-27T00:47:31;10.48;;;2.90;;
71771;SDS011;59606;52.138;5.424;2023-05-27T00:50:00;5.93;;;2.27;;
71771;SDS011;59606;52.138;5.424;2023-05-27T00:52:29;9.57;;;2.20;;
71771;SDS011;59606;52.138;5.424;2023-05-27T00:54:56;8.10;;;2.08;;
71771;SDS011;59606;52.138;5.424;2023-05-27T00:57:24;10.52;;;2.08;;
71771;SDS011;59606;52.138;5.424;2023-05-27T00:59:51;13.07;;;2.72;;
71771;SDS011;59606;52.138;5.424;2023-05-27T01:02:18;5.27;;;1.53;;
71771;SDS011;59606;52.138;5.424;2023-05-27T01:04:45;10.48;;;2.17;;
71771;SDS011;59606;52.138;5.424;2023-05-27T01:15:27;14.53;;;2.80;;
71771;SDS011;59606;52.138;5.424;2023-05-27T01:17:55;4.70;;;1.83;;
71771;SDS011;59606;52.138;5.424;2023-05-27T01:20:23;9.45;;;2.42;;
71771;SDS011;59606;52.138;5.424;2023-05-27T01:22:50;6.97;;;2.15;;
71771;SDS011;59606;52.138;5.424;2023-05-27T01:25:20;11.68;;;2.38;;
71771;SDS011;59606;52.138;5.424;2023-05-27T01:27:47;10.83;;;2.33;;
71771;SDS011;59606;52.138;5.424;2023-05-27T01:30:13;9.55;;;2.35;;
71771;SDS011;59606;52.138;5.424;2023-05-27T01:37:51;12.25;;;2.05;;
71771;SDS011;59606;52.138;5.424;2023-05-27T01:40:18;8.77;;;2.20;;
71771;SDS011;59606;52.138;5.424;2023-05-27T01:42:46;11.20;;;2.28;;
71771;SDS011;59606;52.138;5.424;2023-05-27T01:45:14;7.78;;;2.10;;
71771;SDS011;59606;52.138;5.424;2023-05-27T01:47:42;7.63;;;2.25;;
71771;SDS011;59606;52.138;5.424;2023-05-27T01:50:09;13.27;;;1.92;;
71771;SDS011;59606;52.138;5.424;2023-05-27T01:52:36;10.90;;;2.27;;
71771;SDS011;59606;52.138;5.424;2023-05-27T01:55:02;14.13;;;1.95;;
71771;SDS011;59606;52.138;5.424;2023-05-27T01:57:31;12.95;;;2.20;;
71771;SDS011;59606;52.138;5.424;2023-05-27T01:59:57;9.20;;;1.98;;
71771;SDS011;59606;52.138;5.424;2023-05-27T02:02:24;12.07;;;2.22;;
71771;SDS011;59606;52.138;5.424;2023-05-27T02:04:51;10.80;;;2.97;;
71771;SDS011;59606;52.138;5.424;2023-05-27T02:07:17;9.30;;;2.53;;
71771;SDS011;59606;52.138;5.424;2023-05-27T02:09:45;8.55;;;1.90;;
71771;SDS011;59606;52.138;5.424;2023-05-27T02:12:12;11.27;;;2.13;;
71771;SDS011;59606;52.138;5.424;2023-05-27T02:14:38;5.57;;;2.25;;
71771;SDS011;59606;52.138;5.424;2023-05-27T02:17:05;10.97;;;2.30;;
71771;SDS011;59606;52.138;5.424;2023-05-27T02:19:32;14.32;;;2.47;;
71771;SDS011;59606;52.138;5.424;2023-05-27T02:21:59;11.30;;;2.58;;
71771;SDS011;59606;52.138;5.424;2023-05-27T02:24:26;10.57;;;2.70;;
71771;SDS011;59606;52.138;5.424;2023-05-27T02:26:52;13.98;;;2.85;;
71771;SDS011;59606;52.138;5.424;2023-05-27T02:29:18;10.37;;;1.90;;
71771;SDS011;59606;52.138;5.424;2023-05-27T02:31:45;12.93;;;2.60;;
71771;SDS011;59606;52.138;5.424;2023-05-27T02:34:12;11.77;;;2.60;;
71771;SDS011;59606;52.138;5.424;2023-05-27T02:36:38;13.23;;;2.45;;
71771;SDS011;59606;52.138;5.424;2023-05-27T02:39:05;10.32;;;2.53;;
71771;SDS011;59606;52.138;5.424;2023-05-27T02:41:32;10.07;;;1.97;;
71771;SDS011;59606;52.138;5.424;2023-05-27T02:43:58;11.43;;;2.83;;
71771;SDS011;59606;52.138;5.424;2023-05-27T02:46:25;12.18;;;2.47;;
71771;SDS011;59606;52.138;5.424;2023-05-27T02:48:51;4.68;;;2.00;;
71771;SDS011;59606;52.138;5.424;2023-05-27T02:51:18;13.93;;;2.65;;
71771;SDS011;59606;52.138;5.424;2023-05-27T02:53:44;12.60;;;2.27;;
71771;SDS011;59606;52.138;5.424;2023-05-27T02:56:11;11.55;;;2.22;;
71771;SDS011;59606;52.138;5.424;2023-05-27T02:58:37;11.57;;;2.65;;
71771;SDS011;59606;52.138;5.424;2023-05-27T03:01:04;10.43;;;2.88;;
71771;SDS011;59606;52.138;5.424;2023-05-27T03:03:31;8.75;;;2.45;;
71771;SDS011;59606;52.138;5.424;2023-05-27T03:05:57;13.93;;;2.17;;
71771;SDS011;59606;52.138;5.424;2023-05-27T03:08:24;8.45;;;2.20;;
71771;SDS011;59606;52.138;5.424;2023-05-27T03:10:50;6.82;;;2.25;;
71771;SDS011;59606;52.138;5.424;2023-05-27T03:13:17;10.80;;;2.60;;
71771;SDS011;59606;52.138;5.424;2023-05-27T03:15:43;10.93;;;2.38;;
71771;SDS011;59606;52.138;5.424;2023-05-27T03:18:10;10.37;;;2.33;;
71771;SDS011;59606;52.138;5.424;2023-05-27T03:20:36;12.25;;;2.72;;
71771;SDS011;59606;52.138;5.424;2023-05-27T03:23:03;12.02;;;2.95;;
71771;SDS011;59606;52.138;5.424;2023-05-27T03:25:30;10.85;;;2.45;;
71771;SDS011;59606;52.138;5.424;2023-05-27T03:27:56;12.60;;;2.90;;
71771;SDS011;59606;52.138;5.424;2023-05-27T03:30:23;11.73;;;3.10;;
71771;SDS011;59606;52.138;5.424;2023-05-27T03:32:50;10.73;;;2.72;;
71771;SDS011;59606;52.138;5.424;2023-05-27T03:35:17;12.93;;;2.30;;
71771;SDS011;59606;52.138;5.424;2023-05-27T03:37:44;13.32;;;2.40;;
71771;SDS011;59606;52.138;5.424;2023-05-27T03:40:10;12.25;;;2.10;;
71771;SDS011;59606;52.138;5.424;2023-05-27T03:42:37;10.20;;;2.73;;
71771;SDS011;59606;52.138;5.424;2023-05-27T03:45:04;10.23;;;2.25;;
71771;SDS011;59606;52.138;5.424;2023-05-27T03:47:31;7.57;;;2.20;;
71771;SDS011;59606;52.138;5.424;2023-05-27T03:50:00;12.48;;;2.78;;
71771;SDS011;59606;52.138;5.424;2023-05-27T03:52:28;11.68;;;3.65;;
71771;SDS011;59606;52.138;5.424;2023-05-27T03:54:54;12.23;;;2.60;;
71771;SDS011;59606;52.138;5.424;2023-05-27T03:57:21;12.02;;;2.42;;
71771;SDS011;59606;52.138;5.424;2023-05-27T03:59:47;5.45;;;2.05;;
71771;SDS011;59606;52.138;5.424;2023-05-27T04:02:14;12.65;;;2.35;;
71771;SDS011;59606;52.138;5.424;2023-05-27T04:04:41;14.93;;;2.63;;
71771;SDS011;59606;52.138;5.424;2023-05-27T04:07:08;11.07;;;2.97;;
71771;SDS011;59606;52.138;5.424;2023-05-27T04:09:34;14.25;;;2.33;;
71771;SDS011;59606;52.138;5.424;2023-05-27T04:12:01;15.73;;;3.58;;
71771;SDS011;59606;52.138;5.424;2023-05-27T04:14:27;13.18;;;3.25;;
71771;SDS011;59606;52.138;5.424;2023-05-27T04:16:54;9.52;;;2.65;;
71771;SDS011;59606;52.138;5.424;2023-05-27T04:19:21;10.27;;;2.23;;
71771;SDS011;59606;52.138;5.424;2023-05-27T04:21:48;9.32;;;2.22;;
71771;SDS011;59606;52.138;5.424;2023-05-27T04:24:15;9.18;;;2.03;;
71771;SDS011;59606;52.138;5.424;2023-05-27T04:26:41;11.25;;;2.70;;
71771;SDS011;59606;52.138;5.424;2023-05-27T04:29:09;6.45;;;2.03;;
71771;SDS011;59606;52.138;5.424;2023-05-27T04:31:38;10.33;;;2.10;;
71771;SDS011;59606;52.138;5.424;2023-05-27T04:34:05;10.13;;;2.25;;
71771;SDS011;59606;52.138;5.424;2023-05-27T04:36:32;10.45;;;3.00;;
71771;SDS011;59606;52.138;5.424;2023-05-27T04:39:00;12.07;;;2.08;;
71771;SDS011;59606;52.138;5.424;2023-05-27T04:41:27;8.05;;;2.13;;
71771;SDS011;59606;52.138;5.424;2023-05-27T04:43:54;13.90;;;2.93;;
71771;SDS011;59606;52.138;5.424;2023-05-27T04:46:23;14.20;;;2.70;;
71771;SDS011;59606;52.138;5.424;2023-05-27T04:48:52;12.90;;;2.60;;
71771;SDS011;59606;52.138;5.424;2023-05-27T04:51:19;11.15;;;2.78;;
71771;SDS011;59606;52.138;5.424;2023-05-27T04:53:46;19.83;;;2.88;;
71771;SDS011;59606;52.138;5.424;2023-05-27T04:56:15;11.20;;;2.53;;
71771;SDS011;59606;52.138;5.424;2023-05-27T04:58:43;11.77;;;2.80;;
71771;SDS011;59606;52.138;5.424;2023-05-27T05:01:12;10.23;;;2.50;;
71771;SDS011;59606;52.138;5.424;2023-05-27T05:03:47;14.10;;;2.78;;
71771;SDS011;59606;52.138;5.424;2023-05-27T05:06:20;13.75;;;2.70;;
71771;SDS011;59606;52.138;5.424;2023-05-27T05:08:48;10.30;;;2.20;;
71771;SDS011;59606;52.138;5.424;2023-05-27T05:11:15;18.85;;;2.85;;
71771;SDS011;59606;52.138;5.424;2023-05-27T05:13:41;11.93;;;2.60;;
71771;SDS011;59606;52.138;5.424;2023-05-27T05:16:08;15.10;;;3.17;;
71771;SDS011;59606;52.138;5.424;2023-05-27T05:18:35;17.45;;;5.47;;
71771;SDS011;59606;52.138;5.424;2023-05-27T05:21:01;11.87;;;3.53;;
71771;SDS011;59606;52.138;5.424;2023-05-27T05:23:28;12.38;;;2.67;;
71771;SDS011;59606;52.138;5.424;2023-05-27T05:25:55;12.05;;;2.80;;
71771;SDS011;59606;52.138;5.424;2023-05-27T05:28:24;11.98;;;2.30;;
71771;SDS011;59606;52.138;5.424;2023-05-27T05:30:51;15.48;;;3.15;;
71771;SDS011;59606;52.138;5.424;2023-05-27T05:33:18;14.03;;;3.23;;
71771;SDS011;59606;52.138;5.424;2023-05-27T05:35:48;19.40;;;3.22;;
71771;SDS011;59606;52.138;5.424;2023-05-27T05:38:14;10.63;;;2.70;;
71771;SDS011;59606;52.138;5.424;2023-05-27T05:40:41;11.35;;;2.83;;
71771;SDS011;59606;52.138;5.424;2023-05-27T05:43:07;8.63;;;2.67;;
71771;SDS011;59606;52.138;5.424;2023-05-27T05:45:34;10.97;;;2.10;;
71771;SDS011;59606;52.138;5.424;2023-05-27T05:48:00;15.30;;;2.95;;
71771;SDS011;59606;52.138;5.424;2023-05-27T05:50:27;10.88;;;2.90;;
71771;SDS011;59606;52.138;5.424;2023-05-27T05:52:54;15.60;;;2.92;;
71771;SDS011;59606;52.138;5.424;2023-05-27T05:55:20;13.00;;;2.97;;
71771;SDS011;59606;52.138;5.424;2023-05-27T05:57:47;19.07;;;2.97;;
71771;SDS011;59606;52.138;5.424;2023-05-27T06:00:14;12.80;;;2.80;;
71771;SDS011;59606;52.138;5.424;2023-05-27T06:02:41;15.73;;;2.97;;
71771;SDS011;59606;52.138;5.424;2023-05-27T06:05:08;12.65;;;2.55;;
71771;SDS011;59606;52.138;5.424;2023-05-27T06:07:34;14.35;;;2.90;;
71771;SDS011;59606;52.138;5.424;2023-05-27T06:10:01;15.33;;;2.70;;
71771;SDS011;59606;52.138;5.424;2023-05-27T06:12:30;9.18;;;2.35;;
71771;SDS011;59606;52.138;5.424;2023-05-27T06:14:56;10.75;;;3.15;;
71771;SDS011;59606;52.138;5.424;2023-05-27T06:17:23;11.98;;;3.28;;
71771;SDS011;59606;52.138;5.424;2023-05-27T06:19:49;13.13;;;2.95;;
71771;SDS011;59606;52.138;5.424;2023-05-27T06:22:16;14.80;;;3.50;;
71771;SDS011;59606;52.138;5.424;2023-05-27T06:24:43;9.85;;;3.20;;
71771;SDS011;59606;52.138;5.424;2023-05-27T06:27:09;13.57;;;3.83;;
71771;SDS011;59606;52.138;5.424;2023-05-27T06:29:36;17.20;;;3.55;;
71771;SDS011;59606;52.138;5.424;2023-05-27T06:32:03;15.23;;;4.00;;
71771;SDS011;59606;52.138;5.424;2023-05-27T06:34:29;9.93;;;3.03;;
71771;SDS011;59606;52.138;5.424;2023-05-27T06:36:56;10.48;;;2.72;;
71771;SDS011;59606;52.138;5.424;2023-05-27T06:39:23;15.27;;;3.08;;
71771;SDS011;59606;52.138;5.424;2023-05-27T06:41:49;17.95;;;2.78;;
71771;SDS011;59606;52.138;5.424;2023-05-27T06:44:16;12.35;;;3.13;;
71771;SDS011;59606;52.138;5.424;2023-05-27T06:46:42;14.90;;;2.80;;
71771;SDS011;59606;52.138;5.424;2023-05-27T06:49:09;13.10;;;2.55;;
71771;SDS011;59606;52.138;5.424;2023-05-27T06:51:36;8.88;;;2.92;;
71771;SDS011;59606;52.138;5.424;2023-05-27T06:54:03;13.93;;;3.67;;
71771;SDS011;59606;52.138;5.424;2023-05-27T06:56:30;14.45;;;3.33;;
71771;SDS011;59606;52.138;5.424;2023-05-27T06:58:56;14.73;;;3.07;;
71771;SDS011;59606;52.138;5.424;2023-05-27T07:01:23;13.40;;;3.22;;
71771;SDS011;59606;52.138;5.424;2023-05-27T07:03:49;12.57;;;2.95;;
71771;SDS011;59606;52.138;5.424;2023-05-27T07:06:16;16.98;;;3.20;;
71771;SDS011;59606;52.138;5.424;2023-05-27T07:08:42;10.82;;;2.80;;
71771;SDS011;59606;52.138;5.424;2023-05-27T07:11:09;15.37;;;3.07;;
71771;SDS011;59606;52.138;5.424;2023-05-27T07:13:35;12.85;;;2.78;;
71771;SDS011;59606;52.138;5.424;2023-05-27T07:16:02;19.45;;;3.08;;
71771;SDS011;59606;52.138;5.424;2023-05-27T07:18:29;16.05;;;3.58;;
71771;SDS011;59606;52.138;5.424;2023-05-27T07:20:55;13.70;;;3.13;;
71771;SDS011;59606;52.138;5.424;2023-05-27T07:23:22;10.33;;;3.27;;
71771;SDS011;59606;52.138;5.424;2023-05-27T07:25:48;16.30;;;3.55;;
71771;SDS011;59606;52.138;5.424;2023-05-27T07:28:15;15.13;;;3.00;;
71771;SDS011;59606;52.138;5.424;2023-05-27T07:30:42;12.65;;;3.17;;
71771;SDS011;59606;52.138;5.424;2023-05-27T07:33:09;10.25;;;3.08;;
71771;SDS011;59606;52.138;5.424;2023-05-27T07:35:35;11.23;;;2.50;;
71771;SDS011;59606;52.138;5.424;2023-05-27T07:38:02;15.68;;;3.35;;
71771;SDS011;59606;52.138;5.424;2023-05-27T07:40:29;8.60;;;2.65;;
71771;SDS011;59606;52.138;5.424;2023-05-27T07:42:55;14.73;;;3.03;;
71771;SDS011;59606;52.138;5.424;2023-05-27T07:45:22;16.00;;;3.05;;
71771;SDS011;59606;52.138;5.424;2023-05-27T07:47:49;16.03;;;3.10;;
71771;SDS011;59606;52.138;5.424;2023-05-27T07:50:15;13.75;;;3.55;;
71771;SDS011;59606;52.138;5.424;2023-05-27T07:52:42;17.40;;;3.50;;
71771;SDS011;59606;52.138;5.424;2023-05-27T07:55:08;9.85;;;3.15;;
71771;SDS011;59606;52.138;5.424;2023-05-27T07:57:35;14.98;;;3.38;;
71771;SDS011;59606;52.138;5.424;2023-05-27T08:00:05;13.43;;;3.93;;
71771;SDS011;59606;52.138;5.424;2023-05-27T08:02:32;12.80;;;2.85;;
71771;SDS011;59606;52.138;5.424;2023-05-27T08:04:59;13.48;;;3.38;;
71771;SDS011;59606;52.138;5.424;2023-05-27T08:07:26;14.65;;;3.15;;
71771;SDS011;59606;52.138;5.424;2023-05-27T08:09:52;15.63;;;3.17;;
71771;SDS011;59606;52.138;5.424;2023-05-27T08:12:19;15.07;;;3.07;;
71771;SDS011;59606;52.138;5.424;2023-05-27T08:14:45;16.17;;;3.33;;
71771;SDS011;59606;52.138;5.424;2023-05-27T08:17:12;11.48;;;2.78;;
71771;SDS011;59606;52.138;5.424;2023-05-27T08:19:38;12.27;;;3.45;;
71771;SDS011;59606;52.138;5.424;2023-05-27T08:22:05;12.85;;;3.15;;
71771;SDS011;59606;52.138;5.424;2023-05-27T08:24:34;14.23;;;3.50;;
71771;SDS011;59606;52.138;5.424;2023-05-27T08:27:01;11.77;;;3.85;;
71771;SDS011;59606;52.138;5.424;2023-05-27T08:29:28;16.30;;;3.75;;
71771;SDS011;59606;52.138;5.424;2023-05-27T08:31:56;10.30;;;2.83;;
71771;SDS011;59606;52.138;5.424;2023-05-27T08:34:23;13.93;;;3.38;;
71771;SDS011;59606;52.138;5.424;2023-05-27T08:36:50;9.17;;;2.73;;
71771;SDS011;59606;52.138;5.424;2023-05-27T08:39:16;10.20;;;2.83;;
71771;SDS011;59606;52.138;5.424;2023-05-27T08:41:43;13.07;;;3.65;;
71771;SDS011;59606;52.138;5.424;2023-05-27T08:44:09;9.10;;;3.50;;
71771;SDS011;59606;52.138;5.424;2023-05-27T08:46:48;11.50;;;3.45;;
71771;SDS011;59606;52.138;5.424;2023-05-27T08:49:16;14.23;;;3.60;;
71771;SDS011;59606;52.138;5.424;2023-05-27T08:51:43;13.23;;;3.20;;
71771;SDS011;59606;52.138;5.424;2023-05-27T08:54:11;16.52;;;3.67;;
71771;SDS011;59606;52.138;5.424;2023-05-27T08:56:39;21.08;;;3.30;;
71771;SDS011;59606;52.138;5.424;2023-05-27T08:59:06;12.25;;;2.85;;
71771;SDS011;59606;52.138;5.424;2023-05-27T09:01:33;14.57;;;3.70;;
71771;SDS011;59606;52.138;5.424;2023-05-27T09:04:01;16.95;;;3.47;;
71771;SDS011;59606;52.138;5.424;2023-05-27T09:06:28;15.43;;;4.15;;
71771;SDS011;59606;52.138;5.424;2023-05-27T09:08:55;14.80;;;3.28;;
71771;SDS011;59606;52.138;5.424;2023-05-27T09:11:22;20.65;;;4.50;;
71771;SDS011;59606;52.138;5.424;2023-05-27T09:13:50;14.47;;;4.00;;
71771;SDS011;59606;52.138;5.424;2023-05-27T09:16:20;12.50;;;3.90;;
71771;SDS011;59606;52.138;5.424;2023-05-27T09:18:48;13.90;;;4.00;;
71771;SDS011;59606;52.138;5.424;2023-05-27T09:21:15;19.85;;;4.25;;
71771;SDS011;59606;52.138;5.424;2023-05-27T09:23:42;15.20;;;4.13;;
71771;SDS011;59606;52.138;5.424;2023-05-27T09:26:09;10.50;;;3.50;;
71771;SDS011;59606;52.138;5.424;2023-05-27T09:28:37;9.80;;;3.75;;
71771;SDS011;59606;52.138;5.424;2023-05-27T09:31:07;11.20;;;3.30;;
71771;SDS011;59606;52.138;5.424;2023-05-27T09:33:36;11.85;;;3.55;;
71771;SDS011;59606;52.138;5.424;2023-05-27T09:36:05;12.93;;;4.13;;
71771;SDS011;59606;52.138;5.424;2023-05-27T09:38:33;10.47;;;3.23;;
71771;SDS011;59606;52.138;5.424;2023-05-27T09:41:01;10.13;;;3.28;;
71771;SDS011;59606;52.138;5.424;2023-05-27T09:43:29;12.48;;;3.95;;
71771;SDS011;59606;52.138;5.424;2023-05-27T09:46:00;9.95;;;3.53;;
71771;SDS011;59606;52.138;5.424;2023-05-27T09:48:30;12.73;;;3.70;;
71771;SDS011;59606;52.138;5.424;2023-05-27T09:50:58;9.83;;;3.60;;
71771;SDS011;59606;52.138;5.424;2023-05-27T09:53:26;15.10;;;3.20;;
71771;SDS011;59606;52.138;5.424;2023-05-27T09:55:54;15.65;;;3.45;;
71771;SDS011;59606;52.138;5.424;2023-05-27T09:58:22;10.77;;;3.20;;
71771;SDS011;59606;52.138;5.424;2023-05-27T10:00:49;13.63;;;3.60;;
71771;SDS011;59606;52.138;5.424;2023-05-27T10:03:19;10.30;;;3.30;;
71771;SDS011;59606;52.138;5.424;2023-05-27T10:05:48;16.55;;;4.38;;
71771;SDS011;59606;52.138;5.424;2023-05-27T10:08:16;8.00;;;3.40;;
71771;SDS011;59606;52.138;5.424;2023-05-27T10:10:51;17.83;;;4.32;;
71771;SDS011;59606;52.138;5.424;2023-05-27T10:13:19;21.13;;;4.82;;
71771;SDS011;59606;52.138;5.424;2023-05-27T10:15:48;26.40;;;5.20;;
71771;SDS011;59606;52.138;5.424;2023-05-27T10:18:23;16.67;;;4.00;;
71771;SDS011;59606;52.138;5.424;2023-05-27T10:20:58;10.55;;;2.88;;
71771;SDS011;59606;52.138;5.424;2023-05-27T10:23:30;10.23;;;3.60;;
71771;SDS011;59606;52.138;5.424;2023-05-27T10:26:07;13.00;;;4.13;;
71771;SDS011;59606;52.138;5.424;2023-05-27T10:31:13;12.20;;;3.95;;
71771;SDS011;59606;52.138;5.424;2023-05-27T10:33:43;15.02;;;4.00;;
71771;SDS011;59606;52.138;5.424;2023-05-27T10:36:26;13.50;;;3.55;;
71771;SDS011;59606;52.138;5.424;2023-05-27T10:38:58;10.57;;;3.42;;
71771;SDS011;59606;52.138;5.424;2023-05-27T10:41:27;8.73;;;3.07;;
71771;SDS011;59606;52.138;5.424;2023-05-27T10:43:54;14.65;;;3.42;;
71771;SDS011;59606;52.138;5.424;2023-05-27T10:46:22;8.45;;;2.80;;
71771;SDS011;59606;52.138;5.424;2023-05-27T10:48:49;12.20;;;2.83;;
71771;SDS011;59606;52.138;5.424;2023-05-27T10:51:16;13.13;;;4.13;;
71771;SDS011;59606;52.138;5.424;2023-05-27T10:53:43;8.73;;;3.10;;
71771;SDS011;59606;52.138;5.424;2023-05-27T10:56:09;12.18;;;3.58;;
71771;SDS011;59606;52.138;5.424;2023-05-27T10:58:37;16.70;;;4.05;;
71771;SDS011;59606;52.138;5.424;2023-05-27T11:01:09;9.82;;;3.42;;
71771;SDS011;59606;52.138;5.424;2023-05-27T11:03:41;10.85;;;3.30;;
71771;SDS011;59606;52.138;5.424;2023-05-27T11:06:11;11.60;;;3.30;;
71771;SDS011;59606;52.138;5.424;2023-05-27T11:08:39;9.00;;;2.78;;
71771;SDS011;59606;52.138;5.424;2023-05-27T11:11:06;10.95;;;2.97;;
71771;SDS011;59606;52.138;5.424;2023-05-27T11:13:35;12.30;;;3.00;;
71771;SDS011;59606;52.138;5.424;2023-05-27T11:16:04;13.25;;;4.00;;
71771;SDS011;59606;52.138;5.424;2023-05-27T11:21:06;11.95;;;3.72;;
71771;SDS011;59606;52.138;5.424;2023-05-27T11:23:34;11.23;;;3.33;;
71771;SDS011;59606;52.138;5.424;2023-05-27T11:26:19;13.38;;;3.67;;
71771;SDS011;59606;52.138;5.424;2023-05-27T11:28:49;12.70;;;3.90;;
71771;SDS011;59606;52.138;5.424;2023-05-27T11:31:16;12.17;;;3.37;;
71771;SDS011;59606;52.138;5.424;2023-05-27T11:33:50;13.15;;;3.70;;
71771;SDS011;59606;52.138;5.424;2023-05-27T11:36:18;13.40;;;4.35;;
71771;SDS011;59606;52.138;5.424;2023-05-27T11:38:54;11.32;;;3.60;;
71771;SDS011;59606;52.138;5.424;2023-05-27T11:41:23;17.63;;;3.95;;
71771;SDS011;59606;52.138;5.424;2023-05-27T11:43:59;13.60;;;4.10;;
71771;SDS011;59606;52.138;5.424;2023-05-27T11:46:36;12.82;;;2.90;;
71771;SDS011;59606;52.138;5.424;2023-05-27T11:49:04;10.32;;;2.63;;
71771;SDS011;59606;52.138;5.424;2023-05-27T11:51:42;12.38;;;3.40;;
71771;SDS011;59606;52.138;5.424;2023-05-27T11:54:20;15.93;;;3.97;;
71771;SDS011;59606;52.138;5.424;2023-05-27T11:56:49;14.17;;;3.53;;
71771;SDS011;59606;52.138;5.424;2023-05-27T11:59:17;13.85;;;3.33;;
71771;SDS011;59606;52.138;5.424;2023-05-27T12:01:44;12.75;;;2.97;;
71771;SDS011;59606;52.138;5.424;2023-05-27T12:04:11;11.60;;;4.00;;
71771;SDS011;59606;52.138;5.424;2023-05-27T12:06:38;13.10;;;3.40;;
71771;SDS011;59606;52.138;5.424;2023-05-27T12:09:07;9.43;;;2.90;;
71771;SDS011;59606;52.138;5.424;2023-05-27T12:11:37;11.75;;;3.35;;
71771;SDS011;59606;52.138;5.424;2023-05-27T12:14:05;11.23;;;3.25;;
71771;SDS011;59606;52.138;5.424;2023-05-27T12:16:31;10.40;;;3.65;;
71771;SDS011;59606;52.138;5.424;2023-05-27T12:18:59;9.77;;;2.92;;
71771;SDS011;59606;52.138;5.424;2023-05-27T12:21:26;13.27;;;3.20;;
71771;SDS011;59606;52.138;5.424;2023-05-27T12:23:52;9.98;;;2.95;;
71771;SDS011;59606;52.138;5.424;2023-05-27T12:26:19;9.38;;;2.97;;
71771;SDS011;59606;52.138;5.424;2023-05-27T12:28:46;12.32;;;3.50;;
71771;SDS011;59606;52.138;5.424;2023-05-27T12:31:13;11.35;;;3.00;;
71771;SDS011;59606;52.138;5.424;2023-05-27T12:33:40;8.87;;;3.07;;
71771;SDS011;59606;52.138;5.424;2023-05-27T12:36:06;9.82;;;3.03;;
71771;SDS011;59606;52.138;5.424;2023-05-27T12:38:33;10.55;;;2.88;;
71771;SDS011;59606;52.138;5.424;2023-05-27T12:41:00;8.90;;;2.92;;
71771;SDS011;59606;52.138;5.424;2023-05-27T12:43:27;12.27;;;3.47;;
71771;SDS011;59606;52.138;5.424;2023-05-27T12:45:53;11.37;;;2.57;;
71771;SDS011;59606;52.138;5.424;2023-05-27T12:48:20;13.07;;;2.80;;
71771;SDS011;59606;52.138;5.424;2023-05-27T12:50:48;10.77;;;3.08;;
71771;SDS011;59606;52.138;5.424;2023-05-27T12:53:15;12.52;;;3.28;;
71771;SDS011;59606;52.138;5.424;2023-05-27T12:55:42;12.90;;;3.38;;
71771;SDS011;59606;52.138;5.424;2023-05-27T12:58:10;11.13;;;3.20;;
71771;SDS011;59606;52.138;5.424;2023-05-27T13:00:37;11.30;;;3.30;;
71771;SDS011;59606;52.138;5.424;2023-05-27T13:03:03;9.43;;;3.25;;
71771;SDS011;59606;52.138;5.424;2023-05-27T13:05:30;10.93;;;3.25;;
71771;SDS011;59606;52.138;5.424;2023-05-27T13:10:23;9.73;;;3.00;;
71771;SDS011;59606;52.138;5.424;2023-05-27T13:12:50;11.27;;;3.53;;
71771;SDS011;59606;52.138;5.424;2023-05-27T13:15:17;11.25;;;3.83;;
71771;SDS011;59606;52.138;5.424;2023-05-27T13:17:44;12.35;;;3.28;;
71771;SDS011;59606;52.138;5.424;2023-05-27T13:20:12;10.55;;;3.67;;
71771;SDS011;59606;52.138;5.424;2023-05-27T13:22:41;10.13;;;3.93;;
71771;SDS011;59606;52.138;5.424;2023-05-27T13:25:08;9.60;;;3.40;;
71771;SDS011;59606;52.138;5.424;2023-05-27T13:27:35;13.77;;;3.42;;
71771;SDS011;59606;52.138;5.424;2023-05-27T13:30:02;11.35;;;3.58;;
71771;SDS011;59606;52.138;5.424;2023-05-27T13:32:31;10.63;;;2.70;;
71771;SDS011;59606;52.138;5.424;2023-05-27T13:34:57;6.63;;;3.10;;
71771;SDS011;59606;52.138;5.424;2023-05-27T13:37:24;12.40;;;3.17;;
71771;SDS011;59606;52.138;5.424;2023-05-27T13:39:50;9.23;;;2.97;;
71771;SDS011;59606;52.138;5.424;2023-05-27T13:42:17;12.82;;;3.92;;
71771;SDS011;59606;52.138;5.424;2023-05-27T13:44:43;8.63;;;3.33;;
71771;SDS011;59606;52.138;5.424;2023-05-27T13:47:10;9.87;;;4.00;;
71771;SDS011;59606;52.138;5.424;2023-05-27T13:49:37;9.27;;;3.08;;
71771;SDS011;59606;52.138;5.424;2023-05-27T13:52:03;11.32;;;3.55;;
71771;SDS011;59606;52.138;5.424;2023-05-27T13:54:30;9.93;;;3.17;;
71771;SDS011;59606;52.138;5.424;2023-05-27T13:56:57;11.00;;;2.92;;
71771;SDS011;59606;52.138;5.424;2023-05-27T13:59:23;10.77;;;2.97;;
71771;SDS011;59606;52.138;5.424;2023-05-27T14:01:50;8.27;;;2.75;;
71771;SDS011;59606;52.138;5.424;2023-05-27T14:04:17;7.95;;;2.83;;
71771;SDS011;59606;52.138;5.424;2023-05-27T14:06:44;14.45;;;4.47;;
71771;SDS011;59606;52.138;5.424;2023-05-27T14:09:10;8.88;;;3.10;;
71771;SDS011;59606;52.138;5.424;2023-05-27T14:11:37;7.33;;;3.67;;
71771;SDS011;59606;52.138;5.424;2023-05-27T14:14:04;9.05;;;3.22;;
71771;SDS011;59606;52.138;5.424;2023-05-27T14:16:31;9.50;;;3.20;;
71771;SDS011;59606;52.138;5.424;2023-05-27T14:18:58;8.88;;;3.30;;
71771;SDS011;59606;52.138;5.424;2023-05-27T14:21:24;8.43;;;2.72;;
71771;SDS011;59606;52.138;5.424;2023-05-27T14:23:51;10.17;;;2.73;;
71771;SDS011;59606;52.138;5.424;2023-05-27T14:26:17;11.10;;;3.58;;
71771;SDS011;59606;52.138;5.424;2023-05-27T14:28:44;11.00;;;3.78;;
71771;SDS011;59606;52.138;5.424;2023-05-27T14:31:11;10.20;;;2.70;;
71771;SDS011;59606;52.138;5.424;2023-05-27T14:33:37;10.13;;;3.33;;
71771;SDS011;59606;52.138;5.424;2023-05-27T14:36:04;9.30;;;2.83;;
71771;SDS011;59606;52.138;5.424;2023-05-27T14:38:32;9.45;;;2.90;;
71771;SDS011;59606;52.138;5.424;2023-05-27T14:40:58;13.32;;;3.90;;
71771;SDS011;59606;52.138;5.424;2023-05-27T14:43:25;12.38;;;3.17;;
71771;SDS011;59606;52.138;5.424;2023-05-27T14:45:51;9.25;;;2.85;;
71771;SDS011;59606;52.138;5.424;2023-05-27T14:48:18;10.70;;;2.97;;
71771;SDS011;59606;52.138;5.424;2023-05-27T14:50:45;12.15;;;3.03;;
71771;SDS011;59606;52.138;5.424;2023-05-27T14:53:11;17.33;;;3.65;;
71771;SDS011;59606;52.138;5.424;2023-05-27T14:55:38;18.00;;;7.97;;
71771;SDS011;59606;52.138;5.424;2023-05-27T14:58:04;20.77;;;9.82;;
71771;SDS011;59606;52.138;5.424;2023-05-27T15:00:32;12.63;;;3.60;;